Time;durP1;ratioP1;P1;durP2;ratioP2;P2;SDS_P1;SDS_P2;PMS_P1;PMS_P2;Temp;Humidity;BMP_temperature;BMP_pressure;BME280_temperature;BME280_humidity;BME280_pressure;Samples;Min_cycle;Max_cycle;Signal;HPM_P1;HPM_P2
2022/01/11 00:05:17;;;;;;;10.55;5.47;;;6.00;54.40;;;;;;5236159;23;20379;-94
2022/01/11 00:07:44;;;;;;;10.52;5.10;;;6.00;54.50;;;;;;4919876;29;20019;-93
2022/01/11 00:10:14;;;;;;;9.38;5.00;;;6.00;54.60;;;;;;4914842;29;20047;-95
2022/01/11 00:12:41;;;;;;;9.18;4.85;;;6.00;54.60;;;;;;4932760;29;20043;-94
2022/01/11 00:15:07;;;;;;;8.80;4.80;;;6.00;54.60;;;;;;4914647;29;20281;-95
2022/01/11 00:17:34;;;;;;;8.65;4.40;;;6.00;54.40;;;;;;4913899;29;20031;-94
2022/01/11 00:20:00;;;;;;;8.52;4.75;;;6.00;54.50;;;;;;4937754;29;20119;-96
2022/01/11 00:22:31;;;;;;;9.02;5.03;;;6.00;54.40;;;;;;4902177;29;20530;-93
2022/01/11 00:24:57;;;;;;;8.88;4.53;;;6.00;54.30;;;;;;4906729;29;20514;-95
2022/01/11 00:27:23;;;;;;;6.63;3.88;;;6.10;54.30;;;;;;4902966;29;20031;-93
2022/01/11 00:29:55;;;;;;;7.00;4.60;;;6.00;54.30;;;;;;4902128;29;20035;-94
2022/01/11 00:32:37;;;;;;;8.23;4.63;;;6.00;54.20;;;;;;4910420;29;20094;-95
2022/01/11 00:35:06;;;;;;;7.88;4.10;;;6.10;54.20;;;;;;4911976;29;20035;-96
2022/01/11 00:37:32;;;;;;;7.75;4.72;;;6.00;54.20;;;;;;4916336;29;20059;-94
2022/01/11 00:40:00;;;;;;;9.27;4.85;;;6.00;54.20;;;;;;4908440;29;20032;-92
2022/01/11 00:42:27;;;;;;;7.68;4.88;;;6.10;54.20;;;;;;4913023;29;20989;-94
2022/01/11 00:44:53;;;;;;;8.50;4.47;;;6.00;54.00;;;;;;4914327;29;20120;-94
2022/01/11 00:47:23;;;;;;;6.55;4.40;;;6.00;54.10;;;;;;4911094;29;20048;-95
2022/01/11 00:49:53;;;;;;;7.78;4.70;;;6.10;54.10;;;;;;4916525;29;20039;-94
2022/01/11 00:52:25;;;;;;;8.38;4.70;;;6.00;54.10;;;;;;4913201;29;20018;-96
2022/01/11 00:54:51;;;;;;;8.35;4.57;;;6.10;54.20;;;;;;4911496;29;20035;-93
2022/01/11 00:57:21;;;;;;;7.88;4.68;;;6.00;54.10;;;;;;4907791;29;20036;-94
2022/01/11 00:59:48;;;;;;;7.13;4.45;;;6.00;54.10;;;;;;4909235;29;20110;-95
2022/01/11 01:04:56;;;;;;;6.85;4.15;;;6.00;53.90;;;;;;4924572;29;19927;-94
2022/01/11 01:07:23;;;;;;;7.95;5.15;;;6.00;53.90;;;;;;4897676;29;20103;-95
2022/01/11 01:12:40;;;;;;;10.32;5.50;;;6.00;53.90;;;;;;4901583;29;20040;-95
2022/01/11 01:15:07;;;;;;;8.45;4.65;;;6.00;53.90;;;;;;4895340;29;20036;-96
2022/01/11 01:17:36;;;;;;;9.98;4.60;;;6.10;54.00;;;;;;4897943;29;20037;-95
2022/01/11 01:20:04;;;;;;;8.55;4.60;;;6.00;53.90;;;;;;4906245;29;20035;-93
2022/01/11 01:22:30;;;;;;;7.00;4.15;;;6.10;53.90;;;;;;4884636;29;20032;-92
2022/01/11 01:24:56;;;;;;;9.55;4.55;;;6.00;53.90;;;;;;4899486;29;20032;-93
2022/01/11 01:27:22;;;;;;;8.60;4.65;;;6.00;54.00;;;;;;4884239;29;20494;-92
2022/01/11 01:29:48;;;;;;;10.23;5.15;;;6.00;53.90;;;;;;4885867;29;20044;-94
2022/01/11 01:32:15;;;;;;;8.88;4.60;;;6.00;53.90;;;;;;4883929;29;20619;-93
2022/01/11 01:47:56;;;;;;;6.88;4.40;;;6.10;53.90;;;;;;4887323;29;20059;-96
2022/01/11 01:50:24;;;;;;;8.98;4.75;;;6.00;53.80;;;;;;4873630;29;20041;-93
2022/01/11 01:52:50;;;;;;;9.95;4.78;;;6.00;53.80;;;;;;4857150;29;20041;-93
2022/01/11 01:55:17;;;;;;;9.20;4.78;;;6.00;53.70;;;;;;4873046;29;20039;-94
2022/01/11 02:14:19;;;;;;;7.63;4.63;;;6.00;53.60;;;;;;4927559;29;20072;-93
2022/01/11 02:16:46;;;;;;;8.63;4.35;;;6.00;53.60;;;;;;4925418;29;20051;-92
2022/01/11 02:19:13;;;;;;;7.47;4.07;;;6.00;53.50;;;;;;4904971;29;20052;-92
2022/01/11 02:21:40;;;;;;;7.22;4.65;;;6.00;53.50;;;;;;4903014;29;20028;-91
2022/01/11 02:24:06;;;;;;;9.00;4.45;;;6.00;53.50;;;;;;4899794;29;20060;-92
2022/01/11 02:26:34;;;;;;;7.85;4.50;;;6.00;53.30;;;;;;4903253;29;20040;-93
2022/01/11 02:29:02;;;;;;;6.25;4.10;;;6.00;53.30;;;;;;4922443;29;20064;-93
2022/01/11 02:31:29;;;;;;;6.70;4.38;;;6.00;53.20;;;;;;4897406;29;20040;-92
2022/01/11 02:33:58;;;;;;;6.20;3.97;;;6.00;53.20;;;;;;4902944;29;20035;-93
2022/01/11 02:36:29;;;;;;;7.28;4.07;;;6.00;53.20;;;;;;4916025;29;20020;-93
2022/01/11 02:38:58;;;;;;;7.38;4.20;;;6.00;53.20;;;;;;4903114;29;20032;-93
2022/01/11 02:41:27;;;;;;;6.05;4.57;;;6.00;53.10;;;;;;4901791;29;20032;-92
2022/01/11 02:43:57;;;;;;;6.05;4.05;;;5.90;53.00;;;;;;4897159;29;20834;-94
2022/01/11 02:46:25;;;;;;;6.70;3.83;;;5.90;52.90;;;;;;4902788;29;20096;-94
2022/01/11 02:48:56;;;;;;;5.35;3.25;;;5.90;52.90;;;;;;4899540;29;20029;-93
2022/01/11 02:51:24;;;;;;;5.47;3.70;;;6.00;52.80;;;;;;4920770;29;20040;-93
2022/01/11 02:53:54;;;;;;;5.95;4.03;;;6.00;52.90;;;;;;4899478;29;20108;-92
2022/01/11 02:56:23;;;;;;;7.32;3.95;;;6.00;52.80;;;;;;4918825;29;20036;-93
2022/01/11 02:58:50;;;;;;;5.00;3.70;;;6.00;52.80;;;;;;4919308;29;20048;-92
2022/01/11 03:01:17;;;;;;;5.68;3.45;;;5.90;52.80;;;;;;4914160;29;20059;-92
2022/01/11 03:03:44;;;;;;;4.85;3.42;;;6.00;52.80;;;;;;4907359;29;20136;-94
2022/01/11 03:06:11;;;;;;;4.57;3.20;;;5.90;52.70;;;;;;4906134;29;20037;-94
2022/01/11 03:08:46;;;;;;;5.13;3.35;;;5.90;52.60;;;;;;4903500;29;20027;-92
2022/01/11 03:11:20;;;;;;;4.70;3.28;;;5.90;52.40;;;;;;4922488;29;20056;-93
2022/01/11 03:13:48;;;;;;;5.53;3.70;;;5.90;52.30;;;;;;4921082;29;20063;-93
2022/01/11 03:16:16;;;;;;;4.70;3.33;;;5.90;52.40;;;;;;4931122;29;20058;-93
2022/01/11 03:18:45;;;;;;;5.45;3.33;;;5.90;52.40;;;;;;4930974;29;20157;-94
2022/01/11 03:21:11;;;;;;;4.43;2.90;;;5.90;52.40;;;;;;4928051;29;20051;-94
2022/01/11 03:23:38;;;;;;;5.88;3.88;;;5.90;52.30;;;;;;4925771;29;20024;-93
2022/01/11 03:26:05;;;;;;;4.45;3.22;;;5.90;52.30;;;;;;4938998;29;20032;-92
2022/01/11 03:28:34;;;;;;;3.95;3.15;;;5.90;52.20;;;;;;4920385;29;20095;-92
2022/01/11 03:31:02;;;;;;;5.80;3.42;;;5.90;52.30;;;;;;4921288;29;20027;-95
2022/01/11 03:33:33;;;;;;;4.57;3.00;;;5.90;52.20;;;;;;4930165;29;20182;-92
2022/01/11 03:36:00;;;;;;;4.32;2.80;;;5.90;52.20;;;;;;4915527;29;20083;-95
2022/01/11 03:38:30;;;;;;;4.53;3.28;;;5.90;52.30;;;;;;4917423;29;20039;-92
2022/01/11 03:41:01;;;;;;;4.18;2.97;;;5.90;52.20;;;;;;4944534;29;20034;-92
2022/01/11 03:43:27;;;;;;;6.25;3.25;;;5.90;52.10;;;;;;4931481;29;20047;-92
2022/01/11 03:45:54;;;;;;;4.50;3.10;;;5.90;52.10;;;;;;4919472;29;20070;-91
2022/01/11 03:48:21;;;;;;;5.60;3.28;;;5.90;52.00;;;;;;4919336;29;20032;-91
2022/01/11 03:50:55;;;;;;;5.13;3.28;;;5.90;52.00;;;;;;4925410;29;20035;-93
2022/01/11 03:53:51;;;;;;;4.50;3.00;;;5.80;52.00;;;;;;4926809;29;20042;-91
2022/01/11 03:56:21;;;;;;;3.85;2.78;;;5.80;51.90;;;;;;4912891;29;20091;-92
2022/01/11 03:58:56;;;;;;;4.25;3.00;;;5.80;51.90;;;;;;4914395;29;20035;-94
2022/01/11 04:01:22;;;;;;;3.75;2.88;;;5.80;51.90;;;;;;4929524;29;20408;-93
2022/01/11 04:03:49;;;;;;;3.40;2.60;;;5.80;51.90;;;;;;4924724;29;20046;-92
2022/01/11 04:06:16;;;;;;;3.80;3.10;;;5.80;51.80;;;;;;4917727;29;20071;-94
2022/01/11 04:08:46;;;;;;;3.42;2.63;;;5.80;51.90;;;;;;4917962;29;20159;-93
2022/01/11 04:11:16;;;;;;;4.07;2.83;;;5.80;51.80;;;;;;4920003;29;20032;-93
2022/01/11 04:13:42;;;;;;;4.45;3.03;;;5.80;51.80;;;;;;4919004;29;20255;-90
2022/01/11 04:16:09;;;;;;;5.05;2.90;;;5.80;51.70;;;;;;4932708;29;20055;-95
2022/01/11 04:18:36;;;;;;;3.55;2.85;;;5.80;51.70;;;;;;4939920;29;20040;-94
2022/01/11 04:21:05;;;;;;;3.10;2.60;;;5.80;51.80;;;;;;4941326;29;20170;-92
2022/01/11 04:23:36;;;;;;;4.70;3.30;;;5.80;51.70;;;;;;4922825;29;20042;-93
2022/01/11 04:26:06;;;;;;;3.45;2.80;;;5.80;51.70;;;;;;4941321;29;20043;-94
2022/01/11 04:28:37;;;;;;;4.00;2.83;;;5.80;51.60;;;;;;4927063;29;20043;-93
2022/01/11 04:31:06;;;;;;;2.83;2.30;;;5.80;51.60;;;;;;4931389;29;20110;-94
2022/01/11 04:33:34;;;;;;;4.00;2.83;;;5.80;51.50;;;;;;4938552;23;20060;-93
2022/01/11 04:36:04;;;;;;;4.93;3.05;;;5.80;51.50;;;;;;4926226;23;20104;-93
2022/01/11 04:38:32;;;;;;;3.65;2.67;;;5.80;51.50;;;;;;4887358;29;20072;-94
2022/01/11 04:40:59;;;;;;;4.22;2.75;;;5.70;51.50;;;;;;4875663;29;20043;-89
2022/01/11 04:43:32;;;;;;;3.53;2.63;;;5.80;52.00;;;;;;4874893;29;20096;-91
2022/01/11 04:45:59;;;;;;;3.97;3.00;;;5.80;51.50;;;;;;4889494;29;20596;-89
2022/01/11 04:48:27;;;;;;;4.47;2.72;;;5.80;51.40;;;;;;4873110;29;20033;-93
2022/01/11 04:50:53;;;;;;;4.15;3.05;;;5.70;51.40;;;;;;4892960;29;20029;-95
2022/01/11 04:53:19;;;;;;;4.47;2.80;;;5.80;51.40;;;;;;4866338;29;20045;-93
2022/01/11 04:55:45;;;;;;;5.53;3.47;;;5.70;51.30;;;;;;4871275;29;20132;-94
2022/01/11 04:58:11;;;;;;;3.72;2.47;;;5.80;51.30;;;;;;4877961;29;20536;-94
2022/01/11 05:00:37;;;;;;;5.88;2.83;;;5.70;51.20;;;;;;4867481;29;20077;-93
2022/01/11 05:03:04;;;;;;;3.75;2.65;;;5.70;51.10;;;;;;4896684;29;20048;-92
2022/01/11 05:05:30;;;;;;;3.35;2.58;;;5.70;51.20;;;;;;4897080;29;20033;-93
2022/01/11 05:07:57;;;;;;;3.78;2.53;;;5.70;51.10;;;;;;4884205;29;20069;-92
2022/01/11 05:10:24;;;;;;;3.55;2.60;;;5.70;51.10;;;;;;4900661;29;20117;-92
2022/01/11 05:12:51;;;;;;;3.72;2.63;;;5.70;51.10;;;;;;4900134;29;20067;-90
2022/01/11 05:15:20;;;;;;;3.58;2.45;;;5.70;51.00;;;;;;4887033;29;20167;-89
2022/01/11 05:17:48;;;;;;;4.68;2.83;;;5.70;51.00;;;;;;4888258;29;20052;-90
2022/01/11 05:20:14;;;;;;;3.85;2.88;;;5.70;50.90;;;;;;4883222;29;20029;-90
2022/01/11 05:22:42;;;;;;;3.83;3.00;;;5.70;50.70;;;;;;4867310;29;20037;-89
2022/01/11 05:25:11;;;;;;;3.92;2.60;;;5.70;50.70;;;;;;4882561;29;20040;-89
2022/01/11 05:27:37;;;;;;;2.85;2.35;;;5.60;50.60;;;;;;4895567;29;20040;-87
2022/01/11 05:30:04;;;;;;;3.88;2.47;;;5.60;50.60;;;;;;4882430;29;20495;-87
2022/01/11 05:32:31;;;;;;;3.33;2.40;;;5.60;50.50;;;;;;4896340;29;20033;-88
2022/01/11 05:34:57;;;;;;;3.65;2.70;;;5.60;50.50;;;;;;4862331;29;20064;-94
2022/01/11 05:37:23;;;;;;;4.57;2.60;;;5.60;50.50;;;;;;4899449;29;20040;-90
2022/01/11 05:39:53;;;;;;;3.63;2.70;;;5.60;50.50;;;;;;4879499;29;20036;-92
2022/01/11 05:42:20;;;;;;;3.08;2.50;;;5.60;50.40;;;;;;4865950;29;20036;-93
2022/01/11 05:44:46;;;;;;;3.15;2.58;;;5.60;50.40;;;;;;4883455;29;20041;-91
2022/01/11 05:47:14;;;;;;;2.83;2.20;;;5.70;50.20;;;;;;4884418;29;20028;-91
2022/01/11 05:49:41;;;;;;;4.13;2.40;;;5.70;50.20;;;;;;4899615;29;20033;-92
2022/01/11 05:52:07;;;;;;;3.65;2.38;;;5.70;50.00;;;;;;4887763;29;20046;-93
2022/01/11 05:54:33;;;;;;;3.50;2.53;;;5.70;49.90;;;;;;4889401;29;20055;-95
2022/01/11 05:57:00;;;;;;;3.40;2.20;;;5.70;50.00;;;;;;4890627;29;20480;-92
2022/01/11 05:59:26;;;;;;;3.60;2.60;;;5.70;50.00;;;;;;4885114;29;20112;-90
2022/01/11 06:01:52;;;;;;;3.72;2.83;;;5.70;50.00;;;;;;4886822;29;20032;-91
2022/01/11 06:04:18;;;;;;;2.92;2.28;;;5.70;50.10;;;;;;4889145;29;20047;-93
2022/01/11 06:06:46;;;;;;;4.85;2.60;;;5.70;50.00;;;;;;4894570;29;20036;-92
2022/01/11 06:09:12;;;;;;;4.35;2.80;;;5.80;50.00;;;;;;4867473;29;20036;-92
2022/01/11 06:11:40;;;;;;;3.65;2.70;;;5.70;49.90;;;;;;4893154;29;20045;-92
2022/01/11 06:14:06;;;;;;;3.50;2.50;;;5.70;49.90;;;;;;4879605;29;20036;-92
2022/01/11 06:16:32;;;;;;;3.88;2.65;;;5.80;50.10;;;;;;4893624;29;20044;-92
2022/01/11 06:18:59;;;;;;;3.33;2.50;;;5.70;50.00;;;;;;4904340;29;20105;-92
2022/01/11 06:21:30;;;;;;;4.50;3.05;;;5.70;50.00;;;;;;4888237;29;20039;-92
2022/01/11 06:23:56;;;;;;;5.40;2.42;;;5.80;49.90;;;;;;4901792;29;20124;-92
2022/01/11 06:26:22;;;;;;;4.00;2.60;;;5.70;49.70;;;;;;4901672;29;20058;-92
2022/01/11 06:28:48;;;;;;;3.03;2.33;;;5.70;49.60;;;;;;4882568;29;20032;-92
2022/01/11 06:31:15;;;;;;;4.20;2.70;;;5.70;49.50;;;;;;4866037;29;20093;-92
2022/01/11 06:33:41;;;;;;;4.20;2.78;;;5.70;49.50;;;;;;4867876;29;20032;-93
2022/01/11 06:36:10;;;;;;;4.47;2.80;;;5.70;49.50;;;;;;4865700;29;20045;-91
2022/01/11 06:38:42;;;;;;;4.35;2.90;;;5.70;49.50;;;;;;4864324;29;20043;-90
2022/01/11 06:41:11;;;;;;;3.00;2.25;;;5.70;49.50;;;;;;4894948;29;20032;-92
2022/01/11 06:43:39;;;;;;;3.05;2.60;;;5.70;49.50;;;;;;4864234;29;20039;-93
2022/01/11 06:46:06;;;;;;;4.03;2.40;;;5.70;49.40;;;;;;4893746;29;20056;-92
2022/01/11 06:48:34;;;;;;;3.03;2.30;;;5.70;49.30;;;;;;4895457;29;20550;-90
2022/01/11 06:51:01;;;;;;;4.22;2.63;;;5.70;49.20;;;;;;4880668;29;20123;-92
2022/01/11 06:53:36;;;;;;;4.00;2.85;;;5.70;49.00;;;;;;4879491;29;21261;-92
2022/01/11 06:56:02;;;;;;;3.58;2.25;;;5.60;48.80;;;;;;4876018;29;20043;-89
2022/01/11 06:58:31;;;;;;;3.15;2.75;;;5.70;48.60;;;;;;4860601;29;20035;-89
2022/01/11 07:00:57;;;;;;;3.92;2.50;;;5.70;48.50;;;;;;4861792;29;20043;-92
2022/01/11 07:03:23;;;;;;;3.85;2.42;;;5.60;48.40;;;;;;4896019;29;20775;-90
2022/01/11 07:06:01;;;;;;;3.88;2.70;;;5.60;48.30;;;;;;4877422;29;20040;-91
2022/01/11 07:08:27;;;;;;;4.25;2.55;;;5.60;47.90;;;;;;4865829;29;20071;-92
2022/01/11 07:10:54;;;;;;;3.78;2.60;;;5.60;47.70;;;;;;4877734;29;20472;-94
2022/01/11 07:13:21;;;;;;;4.35;2.70;;;5.60;47.40;;;;;;4869814;29;20525;-93
2022/01/11 07:15:49;;;;;;;3.70;2.55;;;5.70;47.20;;;;;;4959001;23;20101;-89
2022/01/11 07:18:16;;;;;;;3.03;2.13;;;5.70;47.20;;;;;;4907208;29;20027;-93
2022/01/11 07:20:42;;;;;;;3.25;2.22;;;5.70;47.10;;;;;;4908343;29;20039;-89
2022/01/11 07:23:12;;;;;;;3.65;2.17;;;5.70;47.00;;;;;;4897863;29;20488;-92
2022/01/11 07:25:39;;;;;;;3.42;2.40;;;5.70;46.70;;;;;;4890643;29;20046;-92
2022/01/11 07:28:06;;;;;;;5.25;3.00;;;5.70;46.50;;;;;;4896304;29;20039;-91
2022/01/11 07:30:33;;;;;;;3.55;2.50;;;5.70;46.30;;;;;;5333771;23;20523;-92
2022/01/11 07:32:59;;;;;;;4.18;2.63;;;5.70;46.30;;;;;;4920059;29;20491;-94
2022/01/11 07:35:27;;;;;;;4.45;2.42;;;5.70;46.30;;;;;;4931544;29;20027;-88
2022/01/11 07:37:55;;;;;;;4.05;2.65;;;5.80;46.50;;;;;;4933984;29;20063;-88
2022/01/11 07:40:21;;;;;;;7.43;2.38;;;5.70;47.00;;;;;;4931616;29;20055;-91
2022/01/11 07:42:49;;;;;;;4.13;2.17;;;5.70;48.70;;;;;;4917427;29;20032;-91
2022/01/11 07:45:54;;;;;;;6.15;2.80;;;5.80;50.10;;;;;;4923066;29;20036;-92
2022/01/11 07:48:24;;;;;;;5.47;2.55;;;5.80;51.20;;;;;;4933213;29;20429;-90
2022/01/11 07:50:57;;;;;;;6.32;2.60;;;5.90;51.60;;;;;;4915739;29;20176;-89
2022/01/11 07:53:23;;;;;;;4.95;2.45;;;5.90;51.80;;;;;;4913327;29;20059;-91
2022/01/11 07:55:54;;;;;;;3.33;2.25;;;5.90;52.00;;;;;;4911108;29;20035;-87
2022/01/11 07:58:21;;;;;;;4.00;2.45;;;6.00;52.10;;;;;;4911031;29;20177;-90
2022/01/11 08:00:48;;;;;;;7.88;3.47;;;6.10;52.20;;;;;;4925382;29;20060;-89
2022/01/11 08:03:19;;;;;;;5.53;2.20;;;6.10;52.10;;;;;;4930880;29;20032;-92
2022/01/11 08:06:02;;;;;;;9.18;3.33;;;6.20;52.20;;;;;;4924770;29;20035;-87
2022/01/11 08:08:30;;;;;;;5.18;2.25;;;6.20;52.10;;;;;;4917108;29;20641;-89
2022/01/11 08:10:59;;;;;;;10.23;3.03;;;6.20;51.90;;;;;;4932014;29;20662;-89
2022/01/11 08:13:26;;;;;;;3.90;2.38;;;6.30;51.90;;;;;;4922575;29;20039;-86
2022/01/11 08:15:52;;;;;;;4.05;2.50;;;6.20;51.90;;;;;;4912583;29;20032;-84
2022/01/11 08:18:18;;;;;;;4.93;2.13;;;6.30;52.00;;;;;;4937561;29;20032;-81
2022/01/11 08:20:47;;;;;;;5.90;2.58;;;6.30;51.90;;;;;;4950342;29;20133;-82
2022/01/11 08:23:16;;;;;;;5.05;2.00;;;6.40;51.80;;;;;;4912851;29;20036;-88
2022/01/11 08:25:42;;;;;;;5.03;2.38;;;6.40;51.60;;;;;;4923709;29;20036;-86
2022/01/11 08:28:13;;;;;;;4.18;3.00;;;6.40;52.20;;;;;;4931020;29;20031;-85
2022/01/11 08:30:42;;;;;;;4.60;2.28;;;6.40;51.60;;;;;;4945641;29;20139;-87
2022/01/11 08:33:12;;;;;;;6.07;2.58;;;6.40;51.50;;;;;;4929301;29;20440;-83
2022/01/11 08:35:40;;;;;;;2.75;2.08;;;6.50;51.50;;;;;;4931347;29;20498;-84
2022/01/11 08:38:06;;;;;;;4.85;2.35;;;6.50;51.30;;;;;;4915208;29;20032;-81
2022/01/11 08:40:32;;;;;;;3.33;2.28;;;6.50;51.30;;;;;;4931306;29;20028;-82
2022/01/11 08:43:04;;;;;;;3.95;2.30;;;6.50;51.50;;;;;;4931418;29;20139;-85
2022/01/11 08:45:34;;;;;;;4.13;2.15;;;6.50;51.50;;;;;;4927399;29;20050;-84
2022/01/11 08:48:05;;;;;;;4.32;2.13;;;6.60;51.70;;;;;;4915747;29;20528;-84
2022/01/11 08:50:36;;;;;;;8.05;2.42;;;6.60;51.70;;;;;;4923429;29;20423;-85
2022/01/11 08:53:03;;;;;;;6.70;2.70;;;6.60;51.60;;;;;;4929671;29;20542;-85
2022/01/11 08:55:29;;;;;;;6.35;2.60;;;6.70;51.70;;;;;;4911395;29;20410;-83
2022/01/11 08:57:59;;;;;;;5.38;2.35;;;6.70;51.80;;;;;;4920357;29;20083;-86
2022/01/11 09:00:26;;;;;;;9.35;2.10;;;6.80;55.10;;;;;;4931594;29;20034;-90
2022/01/11 09:02:59;;;;;;;5.10;2.00;;;6.90;57.60;;;;;;4918326;29;20511;-89
2022/01/11 09:05:27;;;;;;;4.60;2.17;;;7.00;58.20;;;;;;4915020;29;20036;-89
2022/01/11 09:08:06;;;;;;;5.57;2.55;;;7.10;59.30;;;;;;4912748;29;20036;-91
2022/01/11 09:10:35;;;;;;;4.03;1.92;;;7.10;61.40;;;;;;4932722;29;20667;-91
2022/01/11 09:13:01;;;;;;;3.38;2.00;;;7.30;62.30;;;;;;4915630;29;20060;-89
2022/01/11 09:15:32;;;;;;;2.92;1.88;;;7.30;60.80;;;;;;4930141;29;20031;-90
2022/01/11 09:18:03;;;;;;;5.72;2.53;;;7.30;60.00;;;;;;4907005;29;20032;-89
2022/01/11 09:20:32;;;;;;;3.38;2.10;;;7.20;58.90;;;;;;4992201;23;20225;-89
2022/01/11 09:22:58;;;;;;;3.30;2.22;;;7.30;58.30;;;;;;4952489;28;20032;-91
2022/01/11 09:25:27;;;;;;;3.92;2.15;;;7.20;57.60;;;;;;4940022;28;20012;-90
2022/01/11 09:27:59;;;;;;;4.75;2.25;;;7.20;57.00;;;;;;4943754;28;20038;-90
2022/01/11 09:30:26;;;;;;;4.85;2.50;;;7.20;56.40;;;;;;4915783;29;20411;-90
2022/01/11 09:32:54;;;;;;;5.00;2.40;;;7.20;56.20;;;;;;4919608;29;20087;-88
2022/01/11 09:35:26;;;;;;;3.35;2.13;;;7.20;55.80;;;;;;4933937;29;20032;-88
2022/01/11 09:38:05;;;;;;;3.13;1.90;;;7.20;55.50;;;;;;4921061;29;20032;-88
2022/01/11 09:40:32;;;;;;;7.25;2.70;;;7.20;55.20;;;;;;4906941;29;20137;-89
2022/01/11 09:43:04;;;;;;;2.70;2.22;;;7.10;54.80;;;;;;4920299;29;20118;-89
2022/01/11 09:45:30;;;;;;;3.95;2.20;;;7.20;54.60;;;;;;4938584;29;20059;-89
2022/01/11 09:47:56;;;;;;;4.95;2.40;;;7.20;54.50;;;;;;4936529;29;20047;-90
2022/01/11 09:50:23;;;;;;;3.58;2.17;;;7.20;55.10;;;;;;4925344;29;20587;-90
2022/01/11 09:53:04;;;;;;;2.15;1.88;;;7.10;54.40;;;;;;4933224;29;20047;-89
2022/01/11 09:55:34;;;;;;;6.40;2.20;;;7.20;55.30;;;;;;4919666;29;20131;-91
2022/01/11 09:58:00;;;;;;;5.07;2.28;;;7.20;56.60;;;;;;4932579;29;20036;-91
2022/01/11 10:00:59;;;;;;;4.95;2.42;;;7.20;56.50;;;;;;4884720;29;20142;-90
2022/01/11 10:03:56;;;;;;;2.10;1.73;;;7.20;56.90;;;;;;4935533;29;20130;-91
2022/01/11 10:06:26;;;;;;;5.07;2.30;;;7.20;56.60;;;;;;4911014;29;20054;-92
2022/01/11 10:09:11;;;;;;;4.60;2.13;;;7.30;56.00;;;;;;4926993;29;20518;-90
2022/01/11 10:11:40;;;;;;;3.67;2.25;;;7.20;55.50;;;;;;4935779;29;20039;-91
2022/01/11 10:14:29;;;;;;;8.73;2.20;;;7.30;55.20;;;;;;4913611;29;20044;-90
2022/01/11 10:17:22;;;;;;;3.33;1.90;;;7.20;55.00;;;;;;4924568;29;20036;-90
2022/01/11 10:20:07;;;;;;;3.45;1.58;;;7.30;57.20;;;;;;4914188;29;20035;-89
2022/01/11 10:22:56;;;;;;;5.45;2.17;;;7.40;59.30;;;;;;4927542;29;20043;-90
2022/01/11 10:25:25;;;;;;;3.85;1.88;;;7.50;59.90;;;;;;4943772;29;20054;-88
2022/01/11 10:28:01;;;;;;;2.95;2.33;;;7.50;59.10;;;;;;4957637;28;20019;-90
2022/01/11 10:30:33;;;;;;;5.00;1.73;;;7.60;58.50;;;;;;4936573;29;20023;-90
2022/01/11 10:33:07;;;;;;;3.75;1.73;;;7.50;57.80;;;;;;4937967;29;20063;-89
2022/01/11 10:35:45;;;;;;;2.90;2.20;;;7.50;57.40;;;;;;4943026;29;20040;-86
2022/01/11 10:38:28;;;;;;;5.20;2.05;;;7.50;56.70;;;;;;4922606;29;20073;-88
2022/01/11 10:40:57;;;;;;;4.22;2.08;;;7.60;59.20;;;;;;4917495;29;20031;-88
2022/01/11 10:43:24;;;;;;;4.22;2.15;;;7.80;60.10;;;;;;4934485;29;20558;-86
2022/01/11 10:45:52;;;;;;;3.90;1.88;;;7.90;60.20;;;;;;4935896;29;20043;-91
2022/01/11 10:48:24;;;;;;;6.13;2.25;;;8.10;60.10;;;;;;4923362;29;20043;-89
2022/01/11 10:50:56;;;;;;;9.55;2.30;;;8.30;60.10;;;;;;4915713;29;20547;-89
2022/01/11 10:53:25;;;;;;;4.63;1.80;;;8.40;60.10;;;;;;4916202;29;20031;-89
2022/01/11 10:55:54;;;;;;;5.32;2.00;;;8.50;59.80;;;;;;4936496;29;20410;-90
2022/01/11 10:58:22;;;;;;;5.00;2.10;;;8.60;59.70;;;;;;4934659;29;20034;-89
2022/01/11 11:00:56;;;;;;;6.35;1.90;;;8.70;59.40;;;;;;4917206;29;20040;-89
2022/01/11 11:03:28;;;;;;;2.63;1.80;;;8.80;59.10;;;;;;4935327;29;20042;-92
2022/01/11 11:06:10;;;;;;;6.82;1.95;;;8.90;58.80;;;;;;4931628;29;20374;-92
2022/01/11 11:08:41;;;;;;;3.15;2.00;;;8.90;58.20;;;;;;4921456;29;20047;-93
2022/01/11 11:11:17;;;;;;;2.40;1.90;;;8.90;57.60;;;;;;4933793;29;20507;-91
2022/01/11 11:13:47;;;;;;;2.63;1.70;;;8.80;56.90;;;;;;4935460;29;20046;-93
2022/01/11 11:16:21;;;;;;;11.60;2.42;;;8.70;56.40;;;;;;4935387;29;20034;-91
2022/01/11 11:18:57;;;;;;;6.53;2.17;;;8.60;56.00;;;;;;4937784;29;20491;-91
2022/01/11 11:21:38;;;;;;;3.25;1.92;;;8.50;56.00;;;;;;4921021;29;20691;-91
2022/01/11 11:24:15;;;;;;;2.78;2.22;;;8.50;56.20;;;;;;4932832;29;20031;-91
2022/01/11 11:26:46;;;;;;;5.50;2.17;;;8.40;56.30;;;;;;4941140;29;20043;-90
2022/01/11 11:29:13;;;;;;;2.83;2.00;;;8.40;56.30;;;;;;4942294;29;20059;-91
2022/01/11 11:31:40;;;;;;;3.72;2.40;;;8.40;56.20;;;;;;4942573;29;20111;-91
2022/01/11 11:34:08;;;;;;;4.50;2.22;;;8.30;56.00;;;;;;4944846;29;20462;-91
2022/01/11 11:36:37;;;;;;;3.03;2.13;;;8.30;55.90;;;;;;4934877;29;20106;-89
2022/01/11 11:39:17;;;;;;;3.42;2.10;;;8.30;55.70;;;;;;4964189;29;20490;-90
2022/01/11 11:41:51;;;;;;;4.88;2.30;;;8.20;55.50;;;;;;4919275;29;20053;-90
2022/01/11 11:44:24;;;;;;;5.72;2.50;;;8.20;55.20;;;;;;4928563;29;20039;-89
2022/01/11 11:47:02;;;;;;;6.65;2.38;;;8.20;55.20;;;;;;4928098;29;20035;-88
2022/01/11 11:49:51;;;;;;;3.90;2.67;;;8.20;55.00;;;;;;4929034;29;20593;-89
2022/01/11 11:52:37;;;;;;;3.85;2.10;;;8.10;54.90;;;;;;4913479;29;20407;-89
2022/01/11 11:55:22;;;;;;;4.75;2.28;;;8.10;54.60;;;;;;4948971;29;20039;-88
2022/01/11 11:57:51;;;;;;;3.05;2.53;;;8.10;54.50;;;;;;4920301;29;20039;-88
2022/01/11 12:00:22;;;;;;;2.88;2.10;;;8.00;54.30;;;;;;4933069;29;20122;-89
2022/01/11 12:02:57;;;;;;;4.65;2.20;;;8.00;54.30;;;;;;4934927;29;20098;-90
2022/01/11 12:05:37;;;;;;;3.40;2.22;;;8.00;54.20;;;;;;4935732;29;20031;-90
2022/01/11 12:08:30;;;;;;;4.40;2.35;;;8.00;54.20;;;;;;4945250;29;20035;-90
2022/01/11 12:11:00;;;;;;;3.30;2.50;;;7.90;54.10;;;;;;4926908;29;20035;-89
2022/01/11 12:13:43;;;;;;;4.78;2.28;;;7.90;54.20;;;;;;4948986;29;20039;-90
2022/01/11 12:16:26;;;;;;;2.95;2.20;;;7.90;54.20;;;;;;4915839;29;20031;-88
2022/01/11 12:19:00;;;;;;;3.00;2.17;;;7.90;54.10;;;;;;4946971;29;20062;-89
2022/01/11 12:21:29;;;;;;;4.13;2.40;;;7.80;54.00;;;;;;4931385;29;20075;-90
2022/01/11 12:23:57;;;;;;;3.95;2.50;;;7.80;53.90;;;;;;4915536;29;20427;-90
2022/01/11 12:26:34;;;;;;;5.55;2.42;;;7.80;53.90;;;;;;4911611;29;20395;-89
2022/01/11 12:29:04;;;;;;;3.72;2.28;;;7.80;53.80;;;;;;4933832;29;20089;-89
2022/01/11 12:31:52;;;;;;;3.50;2.47;;;7.80;53.80;;;;;;4952845;29;20043;-90
2022/01/11 12:34:18;;;;;;;2.83;2.20;;;7.80;53.70;;;;;;4954377;29;20039;-90
2022/01/11 12:37:03;;;;;;;3.35;2.22;;;7.70;53.50;;;;;;4928116;29;20031;-90
2022/01/11 12:39:32;;;;;;;3.65;2.60;;;7.70;53.60;;;;;;4954243;29;20050;-89
2022/01/11 12:41:59;;;;;;;3.40;2.05;;;7.70;53.50;;;;;;4932627;29;20187;-90
2022/01/11 12:47:05;;;;;;;3.78;2.30;;;7.70;53.40;;;;;;4943498;29;20035;-89
2022/01/11 12:49:32;;;;;;;3.47;2.53;;;7.60;53.40;;;;;;4929790;29;20561;-90
2022/01/11 12:52:17;;;;;;;2.70;2.17;;;7.60;53.30;;;;;;4926301;29;20063;-89
2022/01/11 12:54:49;;;;;;;5.65;2.78;;;7.60;53.30;;;;;;4944195;28;20035;-90
2022/01/11 12:57:20;;;;;;;3.42;2.45;;;7.60;53.70;;;;;;4931860;29;20031;-88
2022/01/11 12:59:49;;;;;;;4.03;2.67;;;7.60;53.10;;;;;;4918079;29;20083;-90
2022/01/11 13:02:18;;;;;;;6.55;2.60;;;7.60;53.10;;;;;;4931862;29;20023;-89
2022/01/11 13:06:35;;;;;;;10.02;2.58;;;7.60;57.40;;;;;;5101517;27;20491;-92
2022/01/11 13:09:06;;;;;;;3.67;2.20;;;7.90;60.00;;;;;;5088573;28;20089;-92
2022/01/11 13:11:32;;;;;;;5.57;2.55;;;8.00;59.40;;;;;;5090770;28;20027;-91
2022/01/11 13:14:18;;;;;;;5.15;2.75;;;8.00;58.10;;;;;;5089178;28;20032;-91
2022/01/11 13:16:46;;;;;;;5.35;2.42;;;8.00;56.50;;;;;;5112387;28;20031;-93
2022/01/11 13:19:14;;;;;;;4.13;2.30;;;7.90;55.70;;;;;;5087376;28;20077;-93
2022/01/11 13:21:41;;;;;;;6.10;2.90;;;7.90;55.30;;;;;;5085362;28;20058;-93
2022/01/11 13:24:24;;;;;;;4.72;2.85;;;7.90;55.00;;;;;;5101442;28;20062;-92
2022/01/11 13:26:52;;;;;;;6.28;2.83;;;7.90;54.80;;;;;;5096267;28;20180;-90
2022/01/11 13:29:20;;;;;;;5.25;2.50;;;7.80;54.70;;;;;;5101956;28;20043;-90
2022/01/11 13:31:49;;;;;;;7.18;2.88;;;7.80;54.60;;;;;;5094444;28;20414;-91
2022/01/11 13:34:17;;;;;;;5.55;2.97;;;7.80;54.60;;;;;;5118184;28;20016;-87
2022/01/11 13:36:47;;;;;;;4.28;2.78;;;7.80;54.90;;;;;;5119394;28;20066;-90
2022/01/11 13:39:13;;;;;;;5.22;2.70;;;7.80;55.00;;;;;;5115387;28;20032;-89
2022/01/11 13:41:48;;;;;;;5.93;2.53;;;7.70;54.80;;;;;;5105539;28;20058;-90
2022/01/11 13:44:30;;;;;;;4.65;2.50;;;7.70;55.60;;;;;;5087549;28;20031;-89
2022/01/11 13:46:58;;;;;;;9.05;2.58;;;7.70;55.00;;;;;;5098537;28;20071;-88
2022/01/11 13:49:30;;;;;;;3.47;2.22;;;7.70;55.10;;;;;;5096964;28;20038;-88
2022/01/11 13:52:01;;;;;;;3.90;2.17;;;7.70;55.10;;;;;;5097791;28;20065;-87
2022/01/11 13:54:43;;;;;;;3.78;2.40;;;7.70;55.10;;;;;;5097804;28;20031;-87
2022/01/11 13:57:14;;;;;;;5.30;2.75;;;7.60;55.10;;;;;;5083502;28;20469;-87